createdAt,value
2022-11-09T00:00:26.636Z,8.19
2022-11-09T00:05:34.446Z,8.13
2022-11-09T00:10:42.223Z,8.07
2022-11-09T00:15:50.008Z,8.00
2022-11-09T00:20:57.950Z,8.01
2022-11-09T00:26:06.826Z,8.02
2022-11-09T00:31:18.671Z,8.00
2022-11-09T00:36:28.356Z,7.93
2022-11-09T00:41:36.156Z,7.83
2022-11-09T00:46:43.932Z,7.75
2022-11-09T00:51:52.290Z,7.73
2022-11-09T00:56:58.754Z,7.71
2022-11-09T01:02:07.032Z,7.63
2022-11-09T01:07:15.347Z,7.53
2022-11-09T01:12:21.684Z,7.48
2022-11-09T01:17:32.238Z,7.47
2022-11-09T01:22:40.065Z,7.47
2022-11-09T01:27:47.903Z,7.49
2022-11-09T01:32:55.669Z,7.48
2022-11-09T01:38:03.779Z,7.46
2022-11-09T01:43:18.831Z,7.47
2022-11-09T01:48:35.762Z,7.50
2022-11-09T01:53:49.128Z,7.58
2022-11-09T01:59:00.498Z,7.66
2022-11-09T02:04:15.703Z,7.66
2022-11-09T02:09:41.374Z,7.60
2022-11-09T02:14:52.171Z,7.54
2022-11-09T02:20:01.356Z,7.52
2022-11-09T02:25:11.602Z,7.52
2022-11-09T02:30:22.192Z,7.58
2022-11-09T02:35:30.046Z,7.65
2022-11-09T02:40:38.461Z,7.69
2022-11-09T02:45:46.511Z,7.72
2022-11-09T02:50:56.948Z,7.84
2022-11-09T02:56:04.791Z,7.90
2022-11-09T03:01:12.653Z,7.90
2022-11-09T03:06:21.060Z,7.85
2022-11-09T03:11:30.150Z,7.86
2022-11-09T03:16:40.352Z,7.88
2022-11-09T03:21:48.140Z,7.77
2022-11-09T03:26:55.990Z,7.67
2022-11-09T03:32:04.817Z,7.65
2022-11-09T03:37:12.823Z,7.66
2022-11-09T03:42:21.134Z,7.62
2022-11-09T03:47:30.143Z,7.58
2022-11-09T03:52:38.114Z,7.55
2022-11-09T03:57:48.665Z,7.64
2022-11-09T04:02:56.418Z,7.75
2022-11-09T04:08:04.546Z,7.81
2022-11-09T04:13:12.501Z,7.70
2022-11-09T04:18:20.619Z,7.62
2022-11-09T04:23:28.469Z,7.61
2022-11-09T04:28:36.098Z,7.63
2022-11-09T04:33:43.733Z,7.64
2022-11-09T04:38:51.665Z,7.65
2022-11-09T04:44:01.215Z,7.62
2022-11-09T04:49:09.251Z,7.57
2022-11-09T04:54:16.989Z,7.54
2022-11-09T04:59:25.018Z,7.59
2022-11-09T05:04:35.160Z,7.67
2022-11-09T05:09:43.089Z,7.68
2022-11-09T05:14:50.701Z,7.55
2022-11-09T05:19:58.608Z,7.41
2022-11-09T05:25:06.668Z,7.39
2022-11-09T05:30:13.541Z,7.42
2022-11-09T05:35:21.234Z,7.48
2022-11-09T05:40:28.973Z,7.55
2022-11-09T05:45:42.636Z,7.60
2022-11-09T05:50:51.309Z,7.54
2022-11-09T05:56:07.384Z,7.38
2022-11-09T06:01:16.525Z,7.26
2022-11-09T06:06:24.872Z,7.26
2022-11-09T06:11:31.353Z,7.35
2022-11-09T06:16:39.317Z,7.34
2022-11-09T06:21:47.004Z,7.28
2022-11-09T06:26:54.837Z,7.22
2022-11-09T06:32:02.975Z,7.17
2022-11-09T06:37:10.750Z,7.14
2022-11-09T06:42:18.953Z,7.19
2022-11-09T06:47:28.431Z,7.24
2022-11-09T06:52:36.027Z,7.26
2022-11-09T06:57:43.875Z,7.31
2022-11-09T07:02:52.491Z,7.39
2022-11-09T07:08:00.820Z,7.50
2022-11-09T07:13:09.021Z,7.66
2022-11-09T07:18:16.669Z,7.89
2022-11-09T07:23:24.513Z,8.05
2022-11-09T07:28:30.742Z,8.23
2022-11-09T07:33:38.690Z,8.51
2022-11-09T07:38:44.867Z,9.00
2022-11-09T07:43:52.813Z,9.48
2022-11-09T07:49:00.476Z,9.83
2022-11-09T07:54:08.651Z,10.36
2022-11-09T07:59:14.704Z,10.57
2022-11-09T08:04:22.346Z,10.51
2022-11-09T08:09:30.570Z,10.41
2022-11-09T08:14:39.550Z,10.29
2022-11-09T08:19:47.308Z,10.19
2022-11-09T08:24:55.245Z,10.14
2022-11-09T08:30:01.586Z,10.21
2022-11-09T08:35:11.511Z,10.38
2022-11-09T08:40:22.679Z,10.50
2022-11-09T08:45:31.123Z,10.50
2022-11-09T08:50:40.525Z,10.55
2022-11-09T08:55:49.585Z,10.65
2022-11-09T09:00:58.164Z,10.79
2022-11-09T09:06:07.989Z,11.02
2022-11-09T09:11:16.761Z,11.40
2022-11-09T09:16:24.509Z,11.65
2022-11-09T09:21:32.400Z,11.71
2022-11-09T09:26:40.019Z,11.67
2022-11-09T09:31:47.750Z,11.66
2022-11-09T09:36:56.683Z,11.68
2022-11-09T09:42:06.747Z,11.73
2022-11-09T09:47:18.238Z,11.79
2022-11-09T09:52:34.986Z,11.88
2022-11-09T09:57:45.360Z,12.12
2022-11-09T10:02:54.081Z,12.75
2022-11-09T10:08:10.276Z,13.59
2022-11-09T10:13:52.163Z,14.24
2022-11-09T10:19:20.600Z,14.65
2022-11-09T10:24:36.795Z,14.77
2022-11-09T10:29:47.996Z,14.47
2022-11-09T10:35:07.276Z,14.08
2022-11-09T10:40:20.940Z,13.78
2022-11-09T10:45:58.545Z,13.52
2022-11-09T10:51:37.899Z,13.29
2022-11-09T10:57:14.257Z,13.07
2022-11-09T11:02:48.493Z,12.88
2022-11-09T11:08:42.319Z,12.77
2022-11-09T11:14:23.062Z,12.75
2022-11-09T11:19:50.303Z,12.78
2022-11-09T11:25:25.161Z,12.80
2022-11-09T11:30:52.465Z,12.81
2022-11-09T11:36:28.037Z,12.77
2022-11-09T11:42:16.546Z,12.70
2022-11-09T11:47:51.423Z,12.62
2022-11-09T11:53:32.845Z,12.59
2022-11-09T11:59:15.921Z,12.58
2022-11-09T12:05:06.323Z,12.57
2022-11-09T12:10:46.917Z,12.50
2022-11-09T12:16:22.177Z,12.43
2022-11-09T12:21:56.420Z,12.35
2022-11-09T12:27:38.897Z,12.28
2022-11-09T12:33:10.207Z,12.25
2022-11-09T12:38:43.545Z,12.26
2022-11-09T12:44:19.707Z,12.29
2022-11-09T12:49:48.051Z,12.24
2022-11-09T12:55:14.919Z,12.16
2022-11-09T13:00:54.449Z,12.10
2022-11-09T13:06:24.180Z,12.07
2022-11-09T13:11:53.642Z,12.08
2022-11-09T13:17:55.050Z,12.12
2022-11-09T13:23:54.688Z,12.14
2022-11-09T13:29:52.219Z,12.13
2022-11-09T13:35:52.171Z,12.08
2022-11-09T13:41:43.946Z,12.03
2022-11-09T13:47:25.009Z,11.99
2022-11-09T13:52:54.135Z,12.00
2022-11-09T13:58:24.814Z,12.06
2022-11-09T14:03:54.391Z,12.10
2022-11-09T14:09:22.513Z,12.11
2022-11-09T14:15:09.397Z,12.08
2022-11-09T14:20:43.180Z,12.03
2022-11-09T14:26:20.627Z,12.01
2022-11-09T14:31:51.030Z,12.02
2022-11-09T14:37:18.631Z,12.01
2022-11-09T14:42:53.471Z,11.98
2022-11-09T14:48:22.047Z,11.90
2022-11-09T14:53:51.020Z,11.78
2022-11-09T14:59:20.105Z,11.71
2022-11-09T15:04:58.946Z,11.72
2022-11-09T15:10:29.935Z,11.75
2022-11-09T15:15:58.449Z,11.75
2022-11-09T15:21:36.436Z,11.73
2022-11-09T15:27:03.192Z,11.68
2022-11-09T15:32:34.165Z,11.67
2022-11-09T15:38:00.421Z,11.71
2022-11-09T15:43:28.016Z,11.76
2022-11-09T15:48:54.584Z,11.72
2022-11-09T15:54:21.664Z,11.64
2022-11-09T15:59:49.277Z,11.55
2022-11-09T16:05:16.937Z,11.56
2022-11-09T16:10:44.727Z,11.60
2022-11-09T16:16:14.092Z,11.59
2022-11-09T16:21:40.587Z,11.58
2022-11-09T16:27:17.185Z,11.48
2022-11-09T16:32:55.761Z,11.38
2022-11-09T16:38:22.650Z,11.28
2022-11-09T16:43:52.856Z,11.16
2022-11-09T16:49:19.471Z,11.01
2022-11-09T16:54:45.861Z,10.91
2022-11-09T17:00:18.878Z,10.89
2022-11-09T17:05:46.243Z,10.93
2022-11-09T17:11:15.282Z,10.95
2022-11-09T17:16:42.747Z,10.94
2022-11-09T17:22:08.998Z,10.85
2022-11-09T17:27:35.470Z,10.76
2022-11-09T17:33:05.473Z,10.72
2022-11-09T17:38:32.326Z,10.65
2022-11-09T17:44:02.769Z,10.54
2022-11-09T17:49:29.433Z,10.43
2022-11-09T17:54:55.991Z,10.34
2022-11-09T18:00:24.437Z,10.31
2022-11-09T18:05:49.583Z,10.30
2022-11-09T18:11:17.063Z,10.22
2022-11-09T18:16:43.309Z,10.18
2022-11-09T18:22:12.881Z,10.18
2022-11-09T18:27:39.527Z,10.20
2022-11-09T18:33:06.210Z,10.19
2022-11-09T18:38:33.000Z,10.14
2022-11-09T18:44:02.742Z,10.04
2022-11-09T18:49:29.543Z,9.95
2022-11-09T18:54:57.036Z,9.91
2022-11-09T19:00:23.703Z,9.89
2022-11-09T19:05:50.644Z,9.84
2022-11-09T19:11:17.165Z,9.75
2022-11-09T19:16:43.544Z,9.72
2022-11-09T19:22:28.886Z,9.71
2022-11-09T19:27:55.565Z,9.69
2022-11-09T19:33:21.990Z,9.62
2022-11-09T19:38:50.497Z,9.50
2022-11-09T19:44:18.223Z,9.37
2022-11-09T19:49:45.050Z,9.31
2022-11-09T19:55:12.632Z,9.23
2022-11-09T20:00:38.972Z,9.13
2022-11-09T20:06:07.271Z,9.00
2022-11-09T20:11:56.356Z,8.82
2022-11-09T20:17:28.427Z,8.71
2022-11-09T20:22:54.720Z,8.68
2022-11-09T20:28:21.784Z,8.64
2022-11-09T20:34:02.879Z,8.57
2022-11-09T20:39:29.414Z,8.52
2022-11-09T20:44:56.887Z,8.49
2022-11-09T20:50:23.517Z,8.50
2022-11-09T20:55:53.610Z,8.54
2022-11-09T21:01:24.998Z,8.55
2022-11-09T21:06:51.761Z,8.51
2022-11-09T21:12:25.168Z,8.50
2022-11-09T21:17:54.042Z,8.50
2022-11-09T21:23:38.136Z,8.51
2022-11-09T21:29:22.015Z,8.51
2022-11-09T21:34:48.510Z,8.50
2022-11-09T21:40:15.396Z,8.54
2022-11-09T21:45:41.794Z,8.61
2022-11-09T21:51:08.262Z,8.68
2022-11-09T21:56:35.415Z,8.67
2022-11-09T22:02:02.060Z,8.61
2022-11-09T22:07:28.501Z,8.57
2022-11-09T22:13:12.783Z,8.56
2022-11-09T22:18:57.416Z,8.50
2022-11-09T22:24:23.755Z,8.37
2022-11-09T22:29:50.433Z,8.24
2022-11-09T22:35:17.224Z,8.18
2022-11-09T22:40:44.307Z,8.19
2022-11-09T22:46:14.199Z,8.20
2022-11-09T22:51:40.687Z,8.13
2022-11-09T22:57:07.151Z,8.08
2022-11-09T23:02:33.521Z,8.11
2022-11-09T23:07:59.865Z,8.16
2022-11-09T23:13:26.981Z,8.22
2022-11-09T23:18:57.083Z,8.25
2022-11-09T23:24:37.096Z,8.24
2022-11-09T23:30:04.524Z,8.24
2022-11-09T23:35:30.776Z,8.28
2022-11-09T23:40:59.799Z,8.31
2022-11-09T23:46:26.126Z,8.30
2022-11-09T23:51:52.210Z,8.24
2022-11-09T23:57:18.601Z,8.23
